Mechanicville, NY (12118)

11:50 PM EDT on July 02, 2015 (GMT -0400)
Fairway Meadows | | Change Station
CLOSE
Current Station
Personal Weather Station
Location: Mechanicville, NY
Elevation: 300 ft
Nearby Weather Stations

Elev 300 ft 42.91 °N, 73.72 °W | Updated 10 minutes ago

Partly Cloudy
Partly Cloudy
59.7 °F
Feels Like 59.7 °F
N
2.2
Wind Variable Wind from West

Today
High -- | Low -- °F
--% Chance of Precip.
Yesterday
High -- | Low -- °F
Precip. -- in
5:20 AM 8:37 PM
Full, 99% visible
Pressure 29.92 in
Visibility 10.0 miles
Clouds Few 20000 ft
Mostly Cloudy 26000 ft
Dew Point 52 °F
Humidity 77%
Rainfall 0.00 in
Snow Depth Not available.
UV 0 out of 12
Pollen 5.70 out of 12
Air Quality Not available.
Flu Activity Not available.
METAR KALB 030251Z 25004KT 10SM FEW200 BKN260 18/08 A2992 RMK AO2 SLP131 MOON DMLY VSBL T01780083 53009

More Conditions Fewer Conditions

Pressure 29.92 in
Visibility 10.0 miles
Clouds Few 20000 ft
Mostly Cloudy 26000 ft
Dew Point 52 °F
Humidity 77%
Rainfall 0.00 in
Snow Depth Not available.
UV 0 out of 12
Pollen 5.70 out of 12
Air Quality Not available.
Flu Activity Not available.
METAR KALB 030251Z 25004KT 10SM FEW200 BKN260 18/08 A2992 RMK AO2 SLP131 MOON DMLY VSBL T01780083 53009

More Conditions Fewer Conditions

10-Day Weather Forecast

×

Almanac

Astronomy

Jul. 02, 2015 Rise Set
Actual Time
Civil Twilight
Nautical Twilight
Astronomical Twilight
Moon
Length of Visible Light
Length of Day
Tomorrow will be .
, % of the Moon is Illuminated

Today's Extremes

State Highs State Lows

Community

WunderPhotos

Upload Photos

1,834,615 photos uploaded!

WunderBlogs® & News

Nearby

Air Quality

  Air Quality AQ Index Pollutant
Not available.

Snow Depth

Station Depth Elevation

Earthquake Activity

City Distance Mag. Time & Date
Minimum magnitude displayed is 2.5.

Coastal Water Temperatures

Place Temperature

Stations

Nearby Weather Stations

Station Location Temp. Windchill Dew Point Humidity Wind Precip. Elev Updated Type